Time;durP1;ratioP1;P1;durP2;ratioP2;P2;SDS_P1;SDS_P2;PMS_P1;PMS_P2;Temp;Humidity;BMP_temperature;BMP_pressure;BME280_temperature;BME280_humidity;BME280_pressure;Samples;Min_cycle;Max_cycle;Signal;HPM_P1;HPM_P2
2023/03/22 00:00:38;;;;;;;14.55;8.35;;;9.90;99.90;;;;;;5062080;28;20036;-68
2023/03/22 00:03:05;;;;;;;16.52;8.43;;;9.90;99.90;;;;;;5053791;28;20412;-68
2023/03/22 00:05:31;;;;;;;12.75;7.70;;;9.80;99.90;;;;;;5063418;28;20057;-63
2023/03/22 00:07:59;;;;;;;13.63;7.43;;;9.80;99.90;;;;;;5052164;28;20075;-68
2023/03/22 00:10:27;;;;;;;15.85;8.90;;;9.70;99.90;;;;;;5049519;28;20025;-68
2023/03/22 00:12:54;;;;;;;16.25;9.18;;;9.60;99.90;;;;;;5056536;28;20429;-68
2023/03/22 00:15:20;;;;;;;16.33;8.50;;;9.60;99.90;;;;;;5058610;28;20043;-68
2023/03/22 00:17:46;;;;;;;13.20;7.75;;;9.60;99.90;;;;;;5054004;28;20090;-68
2023/03/22 00:20:12;;;;;;;15.07;7.65;;;9.60;99.90;;;;;;5052076;28;20049;-68
2023/03/22 00:22:38;;;;;;;16.65;8.63;;;9.60;99.90;;;;;;5054246;28;20444;-67
2023/03/22 00:25:04;;;;;;;17.65;8.18;;;9.60;99.90;;;;;;5053673;28;20037;-67
2023/03/22 00:27:31;;;;;;;18.02;10.60;;;9.50;99.90;;;;;;5063384;28;20318;-63
2023/03/22 00:29:56;;;;;;;17.70;10.32;;;9.50;99.90;;;;;;5064515;28;20032;-68
2023/03/22 00:32:22;;;;;;;19.20;10.30;;;9.40;99.90;;;;;;5057491;28;20079;-69
2023/03/22 00:34:48;;;;;;;17.67;10.23;;;9.30;99.90;;;;;;5064928;28;20032;-68
2023/03/22 00:37:17;;;;;;;20.13;10.20;;;9.20;99.90;;;;;;5053081;28;20436;-68
2023/03/22 00:39:43;;;;;;;19.55;9.93;;;9.20;99.90;;;;;;5066461;28;20032;-68
2023/03/22 00:42:10;;;;;;;15.57;9.25;;;9.10;99.90;;;;;;5050448;28;20115;-68
2023/03/22 00:44:35;;;;;;;14.68;9.35;;;9.00;99.90;;;;;;5065690;28;20036;-68
2023/03/22 00:47:01;;;;;;;17.20;9.13;;;8.90;99.90;;;;;;5059740;28;20082;-68
2023/03/22 00:49:28;;;;;;;14.93;8.88;;;8.90;99.90;;;;;;5056975;28;20424;-65
2023/03/22 00:51:53;;;;;;;20.00;9.23;;;8.80;99.90;;;;;;5061081;28;20021;-68
2023/03/22 00:54:19;;;;;;;18.75;10.07;;;8.70;99.90;;;;;;5067456;28;20362;-68
2023/03/22 00:56:45;;;;;;;20.25;10.50;;;8.60;99.90;;;;;;5051284;28;20545;-68
2023/03/22 00:59:11;;;;;;;18.70;10.23;;;8.60;99.90;;;;;;5060800;28;20634;-68
2023/03/22 01:01:37;;;;;;;20.10;10.35;;;8.50;99.90;;;;;;5059683;28;20032;-67
2023/03/22 01:04:04;;;;;;;16.10;9.00;;;8.50;99.90;;;;;;5051977;28;20394;-68
2023/03/22 01:06:30;;;;;;;13.15;7.53;;;8.40;99.90;;;;;;5061648;28;20040;-67
2023/03/22 01:08:56;;;;;;;21.02;7.63;;;8.40;99.90;;;;;;5057836;28;20063;-66
2023/03/22 01:11:22;;;;;;;15.63;7.75;;;8.40;99.90;;;;;;5056752;28;20393;-67
2023/03/22 01:13:48;;;;;;;16.52;9.90;;;8.40;99.90;;;;;;5048651;28;20073;-67
2023/03/22 01:16:15;;;;;;;18.73;10.05;;;8.30;99.90;;;;;;5068480;28;20021;-68
2023/03/22 01:18:40;;;;;;;20.70;10.63;;;8.20;99.90;;;;;;5059373;28;20082;-67
2023/03/22 01:21:06;;;;;;;18.73;10.05;;;8.20;99.90;;;;;;5051009;28;20045;-67
2023/03/22 01:23:32;;;;;;;18.70;9.65;;;8.20;99.90;;;;;;5053048;28;20063;-64
2023/03/22 01:25:58;;;;;;;18.63;10.05;;;8.10;99.90;;;;;;5054913;28;20065;-69
2023/03/22 01:28:24;;;;;;;18.17;9.77;;;8.10;99.90;;;;;;5057085;28;20046;-67
2023/03/22 01:30:50;;;;;;;17.20;9.75;;;8.00;99.90;;;;;;5052482;28;20036;-67
2023/03/22 01:33:16;;;;;;;16.75;8.00;;;7.90;99.90;;;;;;5060846;28;20024;-68
2023/03/22 01:35:41;;;;;;;16.98;7.70;;;7.90;99.90;;;;;;5032631;28;20076;-69
2023/03/22 01:38:07;;;;;;;13.43;7.05;;;7.90;99.90;;;;;;5053875;28;20025;-67
2023/03/22 01:40:33;;;;;;;14.68;7.20;;;7.80;99.90;;;;;;5057885;28;20033;-66
2023/03/22 01:42:59;;;;;;;14.48;7.22;;;7.80;99.90;;;;;;5051702;28;20029;-69
2023/03/22 01:45:50;;;;;;;15.32;8.32;;;7.70;99.90;;;;;;5056141;28;20118;-66
2023/03/22 01:48:22;;;;;;;15.40;7.55;;;7.60;99.90;;;;;;5053409;28;20025;-67
2023/03/22 01:51:09;;;;;;;15.70;8.02;;;7.50;99.90;;;;;;5051745;28;20055;-68
2023/03/22 01:54:00;;;;;;;15.27;7.60;;;7.50;99.90;;;;;;5054023;28;20051;-63
2023/03/22 01:56:30;;;;;;;14.23;7.22;;;7.50;99.90;;;;;;5056202;28;20456;-65
2023/03/22 01:58:56;;;;;;;16.38;7.90;;;7.40;99.90;;;;;;5051369;28;20032;-68
2023/03/22 02:01:22;;;;;;;17.77;8.23;;;7.30;99.90;;;;;;5047326;28;20040;-68
2023/03/22 02:03:48;;;;;;;16.50;8.07;;;7.20;99.90;;;;;;5048664;28;20048;-67
2023/03/22 02:06:13;;;;;;;14.40;7.72;;;7.20;99.90;;;;;;5059280;28;20679;-68
2023/03/22 02:08:39;;;;;;;15.63;7.22;;;7.10;99.90;;;;;;5060550;28;20533;-63
2023/03/22 02:11:06;;;;;;;15.20;7.35;;;7.10;99.90;;;;;;5053113;28;20098;-66
2023/03/22 02:14:18;;;;;;;13.90;8.05;;;7.10;99.90;;;;;;5064509;28;20499;-68
2023/03/22 02:16:50;;;;;;;16.88;8.30;;;7.10;99.90;;;;;;5049805;28;20111;-69
2023/03/22 02:19:31;;;;;;;12.70;7.15;;;7.00;99.90;;;;;;5043603;28;20249;-68
2023/03/22 02:22:15;;;;;;;14.73;7.07;;;6.90;99.90;;;;;;5048758;28;20048;-68
2023/03/22 02:24:44;;;;;;;12.67;6.57;;;6.90;99.90;;;;;;5052268;28;20455;-68
2023/03/22 02:27:28;;;;;;;20.65;7.65;;;6.80;99.90;;;;;;5065921;28;20104;-68
2023/03/22 02:30:24;;;;;;;14.23;6.72;;;6.80;99.90;;;;;;5052095;28;20059;-68
2023/03/22 02:33:11;;;;;;;16.08;7.28;;;6.80;99.90;;;;;;5056139;28;20021;-67
2023/03/22 02:35:47;;;;;;;14.68;7.03;;;6.80;99.90;;;;;;5048751;28;20424;-64
2023/03/22 02:38:31;;;;;;;12.20;6.80;;;6.70;99.90;;;;;;5052038;28;20158;-67
2023/03/22 02:41:05;;;;;;;15.35;6.93;;;6.70;99.90;;;;;;5054168;28;20627;-67
2023/03/22 02:43:45;;;;;;;15.55;7.20;;;6.70;99.90;;;;;;5063186;28;20068;-68
2023/03/22 02:46:13;;;;;;;16.85;7.75;;;6.70;99.90;;;;;;5053524;28;20087;-68
2023/03/22 02:49:18;;;;;;;15.77;7.57;;;6.60;99.90;;;;;;5059853;28;20108;-63
2023/03/22 02:51:57;;;;;;;17.42;7.22;;;6.50;99.90;;;;;;5047933;28;20064;-68
2023/03/22 02:54:32;;;;;;;14.00;7.70;;;6.50;99.90;;;;;;5065226;28;20032;-66
2023/03/22 02:57:10;;;;;;;12.50;7.00;;;6.50;99.90;;;;;;5050515;28;20040;-69
2023/03/22 02:59:38;;;;;;;16.85;7.70;;;6.50;99.90;;;;;;5048965;28;20032;-66
2023/03/22 03:02:07;;;;;;;14.70;7.65;;;6.40;99.90;;;;;;5050665;28;20041;-67
2023/03/22 03:04:38;;;;;;;19.17;8.10;;;6.30;99.90;;;;;;5065454;28;20063;-68
2023/03/22 03:07:08;;;;;;;16.80;7.38;;;6.30;99.90;;;;;;5049605;28;20112;-67
2023/03/22 03:09:36;;;;;;;20.63;7.88;;;6.30;99.90;;;;;;5060841;28;20033;-68
2023/03/22 03:12:01;;;;;;;15.23;7.40;;;6.30;99.90;;;;;;5055191;28;20040;-68
2023/03/22 03:14:30;;;;;;;15.98;8.13;;;6.30;99.90;;;;;;5057811;28;20025;-67
2023/03/22 03:17:33;;;;;;;15.27;8.00;;;6.30;99.90;;;;;;5062611;28;20568;-68
2023/03/22 03:20:13;;;;;;;18.38;7.32;;;6.20;99.90;;;;;;5047994;28;20893;-68
2023/03/22 03:23:15;;;;;;;17.58;7.88;;;6.20;99.90;;;;;;5053891;28;20032;-64
2023/03/22 03:26:10;;;;;;;16.30;8.15;;;6.20;99.90;;;;;;5045143;28;20051;-63
2023/03/22 03:29:11;;;;;;;24.80;7.45;;;6.10;99.90;;;;;;5045796;28;20032;-67
2023/03/22 03:31:39;;;;;;;;;;;6.10;99.90;;;;;;5052491;28;20485;-68
2023/03/22 03:34:21;;;;;;;14.05;7.95;;;6.10;99.90;;;;;;5056371;28;19949;-67
2023/03/22 03:36:57;;;;;;;15.02;7.20;;;6.00;99.90;;;;;;5042874;28;20029;-67
2023/03/22 03:39:27;;;;;;;15.45;7.55;;;5.90;99.90;;;;;;5050380;28;20143;-69
2023/03/22 03:41:55;;;;;;;15.68;7.93;;;5.90;99.90;;;;;;5052194;28;20136;-69
2023/03/22 03:44:22;;;;;;;14.90;7.95;;;6.00;99.90;;;;;;5058011;28;20123;-68
2023/03/22 03:46:49;;;;;;;18.63;8.00;;;6.00;99.90;;;;;;5046792;28;20435;-68
2023/03/22 03:49:16;;;;;;;19.95;8.75;;;5.90;99.90;;;;;;5055421;28;20025;-66
2023/03/22 03:51:51;;;;;;;14.68;8.27;;;5.80;99.90;;;;;;5051580;28;20148;-63
2023/03/22 03:54:17;;;;;;;16.08;7.90;;;5.80;99.90;;;;;;5049785;28;20460;-65
2023/03/22 03:56:43;;;;;;;17.48;8.43;;;5.80;99.90;;;;;;5063528;28;20041;-63
2023/03/22 03:59:09;;;;;;;19.90;9.27;;;5.90;99.90;;;;;;5046396;28;20095;-68
2023/03/22 04:01:35;;;;;;;17.40;8.98;;;5.80;99.90;;;;;;5058785;28;20033;-69
2023/03/22 04:04:01;;;;;;;19.23;9.05;;;5.80;99.90;;;;;;5052085;28;20017;-68
2023/03/22 04:06:26;;;;;;;17.30;8.73;;;5.80;99.90;;;;;;5058195;28;20039;-68
2023/03/22 04:08:52;;;;;;;17.88;8.25;;;5.70;99.90;;;;;;5044027;28;20033;-68
2023/03/22 04:11:21;;;;;;;19.00;9.13;;;5.60;99.90;;;;;;5048186;28;20037;-67
2023/03/22 04:13:46;;;;;;;17.67;8.30;;;5.50;99.90;;;;;;5027180;28;21184;-63
2023/03/22 04:16:12;;;;;;;14.52;8.77;;;5.50;99.90;;;;;;5026606;28;20538;-68
2023/03/22 04:18:37;;;;;;;19.67;8.55;;;5.50;99.90;;;;;;5020992;28;20040;-65
2023/03/22 04:21:04;;;;;;;17.00;8.55;;;5.50;99.90;;;;;;5018107;28;20042;-64
2023/03/22 04:23:31;;;;;;;18.98;9.60;;;5.50;99.90;;;;;;5017920;28;20178;-63
2023/03/22 04:25:58;;;;;;;20.75;9.43;;;5.50;99.90;;;;;;5018443;28;20048;-63
2023/03/22 04:28:25;;;;;;;19.15;8.40;;;5.50;99.90;;;;;;5018535;28;20029;-66
2023/03/22 04:30:51;;;;;;;16.60;8.52;;;5.50;99.90;;;;;;5018693;28;20033;-63
2023/03/22 04:33:17;;;;;;;17.73;8.40;;;5.40;99.90;;;;;;5021519;28;20472;-68
2023/03/22 04:35:45;;;;;;;19.17;9.00;;;5.30;99.90;;;;;;5029710;28;20070;-68
2023/03/22 04:38:11;;;;;;;20.05;9.50;;;5.30;99.90;;;;;;5035560;28;20034;-68
2023/03/22 04:40:37;;;;;;;19.67;9.68;;;5.30;99.90;;;;;;5017708;28;20044;-68
2023/03/22 04:43:04;;;;;;;18.77;8.90;;;5.30;99.90;;;;;;5018116;28;20063;-65
2023/03/22 04:45:31;;;;;;;19.58;9.57;;;5.30;99.90;;;;;;5017644;28;20041;-65
2023/03/22 04:47:57;;;;;;;17.23;8.95;;;5.30;99.90;;;;;;5022211;28;20741;-63
2023/03/22 04:50:23;;;;;;;17.40;9.15;;;5.30;99.90;;;;;;5018078;28;20265;-67
2023/03/22 04:52:49;;;;;;;18.45;8.45;;;5.30;99.90;;;;;;5018735;28;20047;-63
2023/03/22 04:55:15;;;;;;;16.65;8.55;;;5.20;99.90;;;;;;5018018;28;20086;-68
2023/03/22 04:57:41;;;;;;;17.08;8.30;;;5.20;99.90;;;;;;5031551;28;20725;-64
2023/03/22 05:00:07;;;;;;;20.65;7.88;;;5.20;99.90;;;;;;5053917;28;20052;-69
2023/03/22 05:02:33;;;;;;;18.13;8.60;;;5.10;99.90;;;;;;5064228;28;20140;-70
2023/03/22 05:04:59;;;;;;;17.45;8.00;;;5.00;99.90;;;;;;5048020;28;20037;-69
2023/03/22 05:07:24;;;;;;;20.60;7.65;;;4.90;99.90;;;;;;5055770;28;20075;-69
2023/03/22 05:09:50;;;;;;;18.58;8.30;;;4.80;99.90;;;;;;5051458;28;20020;-63
2023/03/22 05:12:16;;;;;;;13.88;7.47;;;4.80;99.90;;;;;;5050127;28;20127;-68
2023/03/22 05:14:42;;;;;;;17.98;7.25;;;4.70;99.90;;;;;;5053373;28;20470;-69
2023/03/22 05:17:07;;;;;;;18.77;8.30;;;4.70;99.90;;;;;;5055329;28;20611;-67
2023/03/22 05:19:33;;;;;;;15.18;7.45;;;4.70;99.90;;;;;;5056815;28;20033;-69
2023/03/22 05:22:00;;;;;;;13.93;7.28;;;4.60;99.90;;;;;;5051713;28;20049;-69
2023/03/22 05:24:28;;;;;;;15.52;8.00;;;4.60;99.90;;;;;;5053282;28;20107;-66
2023/03/22 05:26:53;;;;;;;16.90;7.55;;;4.60;99.90;;;;;;5062332;28;20624;-71
2023/03/22 05:29:20;;;;;;;17.35;8.20;;;4.50;99.90;;;;;;5054654;28;20104;-72
2023/03/22 05:31:46;;;;;;;17.88;7.82;;;4.50;99.90;;;;;;5054288;28;20037;-71
2023/03/22 05:34:12;;;;;;;20.95;7.95;;;4.60;99.90;;;;;;5051228;28;20368;-71
2023/03/22 05:36:38;;;;;;;18.42;7.43;;;4.60;99.90;;;;;;5055704;28;20499;-67
2023/03/22 05:39:03;;;;;;;17.52;7.90;;;4.60;99.90;;;;;;5053238;28;20064;-69
2023/03/22 05:41:32;;;;;;;19.35;8.18;;;4.70;99.90;;;;;;5045179;28;20377;-70
2023/03/22 05:43:59;;;;;;;15.73;7.65;;;4.70;99.90;;;;;;5040441;28;20029;-69
2023/03/22 05:46:24;;;;;;;15.27;7.75;;;4.70;99.90;;;;;;5047224;28;20091;-69
2023/03/22 05:48:50;;;;;;;12.43;7.00;;;4.80;99.90;;;;;;5036154;28;20462;-63
2023/03/22 05:51:16;;;;;;;15.48;8.18;;;4.80;99.90;;;;;;5051554;28;20094;-70
2023/03/22 05:53:43;;;;;;;18.10;8.77;;;4.80;99.90;;;;;;5052961;28;20445;-71
2023/03/22 05:56:12;;;;;;;17.30;9.57;;;4.80;99.90;;;;;;5055545;28;20657;-69
2023/03/22 05:58:39;;;;;;;21.13;9.80;;;4.90;99.90;;;;;;5052029;28;20156;-70
2023/03/22 06:01:19;;;;;;;19.45;8.82;;;4.90;99.90;;;;;;5045173;28;20503;-69
2023/03/22 06:03:45;;;;;;;17.48;8.00;;;4.90;99.90;;;;;;5057035;28;20059;-69
2023/03/22 06:06:10;;;;;;;17.95;8.75;;;4.90;99.90;;;;;;5034648;28;20075;-70
2023/03/22 06:08:37;;;;;;;16.35;8.30;;;5.00;99.90;;;;;;5055362;28;20040;-70
2023/03/22 06:11:03;;;;;;;18.55;8.80;;;5.00;99.90;;;;;;5031222;28;20036;-69
2023/03/22 06:13:29;;;;;;;17.33;8.68;;;5.00;99.90;;;;;;5046881;28;20029;-71
2023/03/22 06:15:57;;;;;;;16.20;8.00;;;5.10;99.90;;;;;;5048577;28;20089;-70
2023/03/22 06:18:23;;;;;;;16.95;8.13;;;5.10;99.90;;;;;;5056733;28;20037;-70
2023/03/22 06:20:49;;;;;;;19.35;8.30;;;5.10;99.90;;;;;;5046534;28;20064;-64
2023/03/22 06:23:14;;;;;;;17.65;8.55;;;5.10;99.90;;;;;;5048575;28;20034;-68
2023/03/22 06:25:40;;;;;;;20.30;8.25;;;5.10;99.90;;;;;;5054078;28;20040;-67
2023/03/22 06:28:06;;;;;;;16.73;8.27;;;5.10;99.90;;;;;;5046431;28;20565;-70
2023/03/22 06:30:31;;;;;;;14.23;7.10;;;5.20;99.90;;;;;;5050288;28;20034;-70
2023/03/22 06:32:59;;;;;;;15.77;7.72;;;5.20;99.90;;;;;;5046378;28;20024;-71
2023/03/22 06:35:25;;;;;;;16.23;7.35;;;5.30;99.90;;;;;;5033942;28;20048;-69
2023/03/22 06:37:51;;;;;;;16.63;7.70;;;5.30;99.90;;;;;;5050082;28;20041;-66
2023/03/22 06:40:17;;;;;;;16.75;8.18;;;5.40;99.90;;;;;;5037050;28;20115;-71
2023/03/22 06:42:42;;;;;;;16.80;8.27;;;5.40;99.90;;;;;;5043476;28;20056;-72
2023/03/22 06:45:09;;;;;;;14.32;7.80;;;5.50;99.90;;;;;;5045812;28;20037;-70
2023/03/22 06:47:34;;;;;;;18.20;8.93;;;5.50;99.90;;;;;;5041165;28;20081;-69
2023/03/22 06:50:00;;;;;;;17.83;7.82;;;5.50;99.90;;;;;;5053191;28;20456;-68
2023/03/22 06:52:26;;;;;;;16.88;7.30;;;5.60;99.90;;;;;;5054189;28;20036;-67
2023/03/22 06:54:51;;;;;;;14.85;7.65;;;5.60;99.90;;;;;;5056892;28;20078;-64
2023/03/22 06:57:17;;;;;;;19.58;9.05;;;5.70;99.90;;;;;;5053494;28;20085;-72
2023/03/22 06:59:43;;;;;;;19.52;9.15;;;5.80;99.90;;;;;;5050226;28;20480;-71
2023/03/22 07:02:11;;;;;;;17.88;8.90;;;5.90;99.90;;;;;;5055518;28;20056;-72
2023/03/22 07:04:36;;;;;;;20.35;9.23;;;6.00;99.90;;;;;;5041224;28;20037;-74
2023/03/22 07:07:02;;;;;;;16.10;8.45;;;6.10;99.90;;;;;;5054345;28;20036;-72
2023/03/22 07:09:28;;;;;;;18.30;10.25;;;6.20;99.90;;;;;;5053735;28;20040;-70
2023/03/22 07:11:53;;;;;;;17.00;8.43;;;6.40;99.90;;;;;;5056404;28;20029;-66
2023/03/22 07:14:19;;;;;;;17.63;8.50;;;6.60;99.90;;;;;;5055976;28;20028;-74
2023/03/22 07:16:45;;;;;;;17.73;8.38;;;6.60;99.90;;;;;;5057548;28;20064;-74
2023/03/22 07:19:11;;;;;;;18.08;9.73;;;6.70;99.90;;;;;;5064673;28;20032;-71
2023/03/22 07:21:36;;;;;;;18.35;8.45;;;6.80;99.90;;;;;;5052733;28;20080;-72
2023/03/22 07:24:02;;;;;;;16.77;9.10;;;6.90;99.90;;;;;;5053587;28;20036;-72
2023/03/22 07:26:29;;;;;;;16.60;8.18;;;7.00;99.90;;;;;;5042921;28;20037;-73
2023/03/22 07:28:55;;;;;;;20.17;9.30;;;7.20;99.90;;;;;;5046963;28;20037;-68
2023/03/22 07:31:21;;;;;;;15.43;8.80;;;7.30;99.90;;;;;;5066660;28;20437;-74
2023/03/22 07:33:47;;;;;;;16.80;8.63;;;7.40;99.90;;;;;;5061508;28;20443;-72
2023/03/22 07:36:12;;;;;;;17.40;9.23;;;7.60;99.90;;;;;;5066710;28;20050;-71
2023/03/22 07:38:38;;;;;;;17.58;9.02;;;7.80;99.90;;;;;;5071632;28;20038;-73
2023/03/22 07:41:05;;;;;;;14.70;8.48;;;8.10;99.90;;;;;;5054172;28;20029;-74
2023/03/22 07:43:30;;;;;;;15.80;9.07;;;8.20;99.90;;;;;;5059637;28;20469;-71
2023/03/22 07:45:56;;;;;;;20.98;9.15;;;8.50;99.90;;;;;;5059694;28;20040;-67
2023/03/22 07:48:22;;;;;;;20.10;9.35;;;8.60;99.90;;;;;;5051969;28;20385;-75
2023/03/22 07:50:49;;;;;;;16.40;8.27;;;8.90;99.90;;;;;;5055488;28;20028;-74
2023/03/22 07:53:14;;;;;;;16.40;8.27;;;9.10;99.90;;;;;;5055275;28;20025;-72
2023/03/22 07:55:43;;;;;;;19.02;8.88;;;9.20;99.90;;;;;;5055052;28;20033;-72
2023/03/22 07:58:09;;;;;;;16.48;8.70;;;9.40;99.90;;;;;;5056841;28;20060;-72
2023/03/22 08:00:35;;;;;;;14.55;7.93;;;9.60;99.90;;;;;;5067853;28;20032;-73
2023/03/22 08:03:01;;;;;;;17.90;7.97;;;9.90;99.90;;;;;;5051109;28;20377;-70
2023/03/22 08:05:26;;;;;;;15.05;7.45;;;10.20;99.90;;;;;;5046858;28;20036;-72
2023/03/22 08:07:53;;;;;;;14.57;6.82;;;10.50;99.90;;;;;;5053255;28;20033;-74
2023/03/22 08:10:19;;;;;;;12.32;6.55;;;10.80;99.90;;;;;;5048858;28;20025;-74
2023/03/22 08:12:45;;;;;;;12.57;7.45;;;11.10;99.90;;;;;;5051484;28;20037;-71
2023/03/22 08:15:10;;;;;;;10.98;5.72;;;11.40;99.90;;;;;;5043318;28;20118;-71
2023/03/22 08:17:36;;;;;;;8.85;3.95;;;11.60;99.90;;;;;;5057019;28;20130;-72
2023/03/22 08:20:07;;;;;;;9.20;4.78;;;11.90;99.90;;;;;;5050350;28;20064;-72
2023/03/22 08:22:34;;;;;;;7.30;3.08;;;12.10;99.90;;;;;;5055055;28;20040;-72
2023/03/22 08:25:00;;;;;;;4.93;2.53;;;12.40;99.90;;;;;;5053064;28;20025;-66
2023/03/22 08:27:26;;;;;;;4.38;2.58;;;12.40;99.90;;;;;;5041269;28;20051;-69
2023/03/22 08:29:51;;;;;;;6.50;2.75;;;12.50;99.90;;;;;;5051090;28;20025;-72
2023/03/22 08:32:17;;;;;;;5.90;2.90;;;12.50;99.90;;;;;;5049271;28;20029;-72
2023/03/22 08:34:43;;;;;;;9.55;2.65;;;12.70;99.90;;;;;;5056075;28;20040;-74
2023/03/22 08:37:10;;;;;;;4.18;2.40;;;12.90;99.90;;;;;;5062022;28;20100;-76
2023/03/22 08:39:36;;;;;;;6.43;2.55;;;12.80;99.90;;;;;;5059080;28;20631;-74
2023/03/22 08:42:02;;;;;;;6.80;2.20;;;12.80;99.90;;;;;;5056144;28;20112;-70
2023/03/22 08:44:28;;;;;;;7.40;2.40;;;13.00;99.90;;;;;;5052211;28;20116;-72
2023/03/22 08:46:54;;;;;;;6.18;2.22;;;13.00;99.90;;;;;;5058709;28;20112;-71
2023/03/22 08:49:20;;;;;;;4.45;2.00;;;13.00;99.90;;;;;;5047955;28;20021;-74
2023/03/22 08:51:46;;;;;;;3.78;2.00;;;13.20;99.90;;;;;;5055191;28;20142;-69
2023/03/22 08:54:12;;;;;;;4.45;1.95;;;13.20;99.90;;;;;;5055568;28;20155;-73
2023/03/22 08:56:38;;;;;;;12.40;2.88;;;13.20;99.90;;;;;;5052697;28;20037;-71
2023/03/22 08:59:06;;;;;;;4.15;1.60;;;13.30;99.90;;;;;;5050533;28;20114;-74
2023/03/22 09:01:32;;;;;;;5.15;1.80;;;13.40;99.90;;;;;;5057999;28;20040;-72
2023/03/22 09:03:57;;;;;;;2.50;1.38;;;13.50;99.90;;;;;;5063294;28;20393;-71
2023/03/22 09:06:25;;;;;;;5.80;1.50;;;13.50;99.90;;;;;;5044747;28;20036;-72
2023/03/22 09:08:51;;;;;;;2.55;1.20;;;13.60;99.90;;;;;;5046988;28;20447;-70
2023/03/22 09:11:17;;;;;;;2.67;1.15;;;13.40;99.90;;;;;;5063112;28;20020;-72
2023/03/22 09:13:43;;;;;;;3.05;1.30;;;13.50;99.90;;;;;;5054097;28;20485;-73
2023/03/22 09:16:09;;;;;;;6.10;1.20;;;13.60;99.90;;;;;;5065870;28;20029;-74
2023/03/22 09:18:39;;;;;;;3.45;1.05;;;13.50;99.90;;;;;;5060185;28;20037;-69
2023/03/22 09:21:07;;;;;;;4.00;1.17;;;13.60;99.90;;;;;;5057028;28;20101;-71
2023/03/22 09:23:34;;;;;;;4.07;1.20;;;13.70;99.90;;;;;;5046888;28;20051;-73
2023/03/22 09:26:01;;;;;;;2.17;1.10;;;13.80;99.90;;;;;;5045438;28;20036;-67
2023/03/22 09:28:27;;;;;;;2.28;1.17;;;14.00;99.90;;;;;;5046008;28;20119;-75
2023/03/22 09:30:53;;;;;;;1.98;1.08;;;14.10;99.90;;;;;;5064438;28;20392;-82
2023/03/22 09:33:19;;;;;;;3.75;1.20;;;14.10;99.90;;;;;;5049555;28;20039;-74
2023/03/22 09:35:45;;;;;;;3.75;1.17;;;14.20;99.90;;;;;;5058265;28;20099;-74
2023/03/22 09:38:11;;;;;;;2.30;0.90;;;14.30;99.90;;;;;;5056361;28;20745;-72
2023/03/22 09:40:47;;;;;;;2.88;0.98;;;14.30;99.90;;;;;;5047867;28;20025;-75
2023/03/22 09:43:15;;;;;;;2.67;1.35;;;14.50;99.90;;;;;;5057143;28;20036;-75
2023/03/22 09:45:45;;;;;;;2.75;1.38;;;14.80;99.90;;;;;;5053416;28;20037;-72
2023/03/22 09:48:16;;;;;;;1.83;1.10;;;14.80;99.90;;;;;;5051574;28;20036;-71
2023/03/22 09:50:53;;;;;;;3.03;1.35;;;14.30;99.90;;;;;;5060765;28;20042;-75
2023/03/22 09:53:22;;;;;;;3.05;1.40;;;14.40;99.90;;;;;;5063614;28;20025;-77
2023/03/22 09:56:13;;;;;;;3.35;1.30;;;14.40;99.90;;;;;;5041350;28;20067;-73
2023/03/22 09:58:56;;;;;;;2.38;1.20;;;14.50;99.90;;;;;;5056523;28;20561;-74
2023/03/22 10:01:39;;;;;;;1.92;1.00;;;14.50;99.90;;;;;;5052957;28;20036;-73
2023/03/22 10:04:25;;;;;;;2.05;1.15;;;14.60;99.90;;;;;;5061126;28;20024;-67
2023/03/22 10:07:05;;;;;;;4.00;1.20;;;14.60;99.90;;;;;;5051559;28;20036;-75
2023/03/22 10:09:56;;;;;;;3.72;1.10;;;14.60;99.90;;;;;;5052532;28;20033;-76
2023/03/22 10:12:29;;;;;;;3.17;1.48;;;14.80;99.90;;;;;;5054988;28;20071;-75
2023/03/22 10:15:05;;;;;;;2.00;0.88;;;14.90;99.90;;;;;;5066478;28;20020;-76
2023/03/22 10:17:34;;;;;;;2.97;0.80;;;15.30;99.90;;;;;;5034230;28;20039;-75
2023/03/22 10:20:08;;;;;;;2.10;0.90;;;15.10;99.90;;;;;;5051728;28;20021;-75
2023/03/22 10:22:40;;;;;;;4.50;0.95;;;15.00;99.90;;;;;;5058102;28;20381;-75
2023/03/22 10:25:08;;;;;;;2.50;1.00;;;14.80;99.90;;;;;;5053672;28;20032;-68
2023/03/22 10:27:34;;;;;;;2.35;1.17;;;14.80;99.90;;;;;;5053100;28;20025;-76
2023/03/22 10:30:08;;;;;;;1.83;0.90;;;14.70;99.90;;;;;;5053593;28;20053;-74
2023/03/22 10:32:47;;;;;;;4.78;1.10;;;14.70;99.90;;;;;;5052897;28;20032;-75
2023/03/22 10:35:14;;;;;;;3.03;1.27;;;14.70;99.90;;;;;;5057485;28;20029;-73
2023/03/22 10:37:41;;;;;;;3.13;1.50;;;14.60;99.90;;;;;;5047156;28;20084;-75
2023/03/22 10:40:15;;;;;;;2.67;1.48;;;14.60;99.90;;;;;;5055205;28;20033;-68
2023/03/22 10:42:44;;;;;;;1.85;1.20;;;14.70;99.90;;;;;;5060750;28;20099;-72
2023/03/22 10:45:15;;;;;;;3.10;1.38;;;14.90;99.90;;;;;;5047222;28;20133;-75
2023/03/22 10:48:01;;;;;;;6.65;1.52;;;15.10;99.90;;;;;;5043769;28;20215;-68
2023/03/22 10:50:37;;;;;;;3.72;1.50;;;15.30;99.90;;;;;;5064366;28;20670;-75
2023/03/22 10:53:27;;;;;;;2.63;1.23;;;15.60;99.90;;;;;;5049309;28;20033;-71
2023/03/22 10:55:53;;;;;;;1.92;1.10;;;15.50;99.90;;;;;;5043117;28;20065;-72
2023/03/22 10:58:21;;;;;;;2.80;1.23;;;15.70;99.90;;;;;;5040982;28;20063;-73
2023/03/22 11:00:49;;;;;;;5.82;1.10;;;15.70;99.90;;;;;;5061087;28;20111;-74
2023/03/22 11:03:27;;;;;;;3.60;1.33;;;15.50;99.90;;;;;;5052807;28;20076;-74
2023/03/22 11:06:13;;;;;;;2.88;1.40;;;16.00;99.90;;;;;;5040276;28;20122;-74
2023/03/22 11:08:47;;;;;;;3.45;1.65;;;16.10;99.90;;;;;;5051442;28;20475;-73
2023/03/22 11:11:27;;;;;;;2.72;1.13;;;15.80;99.90;;;;;;5030791;28;20033;-73
2023/03/22 11:14:14;;;;;;;2.85;1.10;;;15.70;99.90;;;;;;5045982;28;20028;-73
2023/03/22 11:16:57;;;;;;;3.42;1.13;;;15.80;99.90;;;;;;5057695;28;20148;-72
2023/03/22 11:19:34;;;;;;;6.13;1.25;;;15.80;99.90;;;;;;5036446;28;20035;-73
2023/03/22 11:22:03;;;;;;;4.45;1.52;;;15.70;99.90;;;;;;5045265;28;20412;-70
2023/03/22 11:24:31;;;;;;;1.83;1.00;;;15.70;99.90;;;;;;5060055;28;20124;-73
2023/03/22 11:27:06;;;;;;;2.38;1.05;;;15.50;99.90;;;;;;5050052;28;20047;-73
2023/03/22 11:29:42;;;;;;;2.17;1.08;;;15.50;99.90;;;;;;5043649;28;20558;-69
2023/03/22 11:32:28;;;;;;;1.63;1.08;;;15.80;99.90;;;;;;5053166;28;20033;-70
2023/03/22 11:35:19;;;;;;;1.17;0.90;;;16.20;99.90;;;;;;5057012;28;20367;-77
2023/03/22 11:37:49;;;;;;;2.53;1.23;;;16.50;99.90;;;;;;5042104;28;20040;-74
2023/03/22 11:40:17;;;;;;;;;;;16.50;99.90;;;;;;5049293;28;20069;-73
2023/03/22 11:42:43;;;;;;;1.52;0.98;;;16.80;99.90;;;;;;5059778;28;19916;-73
2023/03/22 11:45:16;;;;;;;3.20;1.30;;;17.00;99.90;;;;;;5056399;28;20033;-69
2023/03/22 11:47:41;;;;;;;1.90;0.90;;;16.80;98.60;;;;;;5041431;28;20025;-72
2023/03/22 11:50:28;;;;;;;2.38;1.25;;;16.70;98.00;;;;;;5047385;28;20032;-68
2023/03/22 11:52:55;;;;;;;6.00;1.13;;;16.80;99.40;;;;;;5040827;28;20481;-76
2023/03/22 11:55:22;;;;;;;4.15;1.13;;;16.70;99.70;;;;;;5054769;28;20495;-73
2023/03/22 11:57:49;;;;;;;4.60;1.40;;;16.90;99.30;;;;;;5057744;28;20021;-75
2023/03/22 12:00:24;;;;;;;2.75;1.20;;;17.10;98.90;;;;;;5054704;28;20025;-73
2023/03/22 12:03:24;;;;;;;1.90;1.00;;;17.10;97.10;;;;;;5044122;28;20531;-73
2023/03/22 12:05:51;;;;;;;2.00;0.90;;;16.70;94.90;;;;;;5025828;28;20076;-73
2023/03/22 12:08:23;;;;;;;3.22;1.00;;;17.00;97.00;;;;;;5044296;28;20266;-75
2023/03/22 12:10:57;;;;;;;0.90;0.70;;;17.30;94.80;;;;;;5050549;28;20028;-74
2023/03/22 12:13:56;;;;;;;2.17;0.90;;;17.40;93.90;;;;;;5035958;28;20133;-76
2023/03/22 12:16:27;;;;;;;2.10;0.93;;;17.40;92.70;;;;;;5032106;28;20048;-75
2023/03/22 12:19:14;;;;;;;2.83;0.90;;;17.60;92.70;;;;;;5053661;28;20029;-74
2023/03/22 12:21:41;;;;;;;2.40;1.20;;;17.30;91.50;;;;;;5067018;28;20105;-72
2023/03/22 12:24:27;;;;;;;1.65;0.85;;;17.30;92.90;;;;;;5062956;28;20024;-76
2023/03/22 12:27:14;;;;;;;4.15;0.90;;;17.60;93.20;;;;;;5061862;28;20075;-74
2023/03/22 12:30:06;;;;;;;2.05;0.77;;;17.00;91.10;;;;;;5057974;28;20396;-74
2023/03/22 12:32:37;;;;;;;1.98;0.90;;;16.70;93.50;;;;;;5059501;28;20094;-74
2023/03/22 12:35:06;;;;;;;4.95;0.80;;;16.70;94.60;;;;;;5054774;28;20481;-73
2023/03/22 12:37:34;;;;;;;1.73;0.88;;;16.60;94.10;;;;;;5061682;28;20169;-76
2023/03/22 12:40:06;;;;;;;4.63;1.38;;;16.60;93.70;;;;;;5053655;28;20492;-73
2023/03/22 12:42:51;;;;;;;2.03;1.08;;;16.60;96.00;;;;;;5059243;28;20036;-75
2023/03/22 12:45:22;;;;;;;2.30;0.95;;;16.50;94.30;;;;;;5041604;28;20500;-75
2023/03/22 12:48:09;;;;;;;2.70;1.00;;;16.40;93.20;;;;;;5050756;28;20036;-71
2023/03/22 12:51:15;;;;;;;2.10;1.10;;;16.40;94.50;;;;;;5057693;28;20478;-73
2023/03/22 12:53:49;;;;;;;1.95;1.10;;;16.60;94.40;;;;;;5043268;28;20040;-74
2023/03/22 12:56:18;;;;;;;1.70;0.95;;;17.10;94.50;;;;;;5047703;28;20670;-70
2023/03/22 12:59:04;;;;;;;2.25;0.70;;;17.40;97.10;;;;;;5051669;28;20025;-80
2023/03/22 13:01:51;;;;;;;2.05;0.90;;;17.70;93.50;;;;;;5049248;28;20021;-79